sensor_id;sensor_type;location;lat;lon;timestamp;pressure;altitude;pressure_sealevel;temperature;humidity
6198;BME280;3132;42.622;23.328;2022-11-15T00:01:20;93370.22;;;3.49;100.00
6198;BME280;3132;42.622;23.328;2022-11-15T00:03:45;93375.38;;;3.49;99.88
6198;BME280;3132;42.622;23.328;2022-11-15T00:06:11;93368.06;;;3.46;100.00
6198;BME280;3132;42.622;23.328;2022-11-15T00:08:37;93366.53;;;3.57;100.00
6198;BME280;3132;42.622;23.328;2022-11-15T00:11:03;93362.22;;;3.39;100.00
6198;BME280;3132;42.622;23.328;2022-11-15T00:13:29;93351.88;;;3.39;100.00
6198;BME280;3132;42.622;23.328;2022-11-15T00:15:59;93358.69;;;3.33;100.00
6198;BME280;3132;42.622;23.328;2022-11-15T00:18:25;93338.69;;;3.29;100.00
6198;BME280;3132;42.622;23.328;2022-11-15T00:20:50;93356.25;;;3.39;100.00
6198;BME280;3132;42.622;23.328;2022-11-15T00:23:16;93346.94;;;3.38;100.00
6198;BME280;3132;42.622;23.328;2022-11-15T00:25:41;93352.59;;;3.46;100.00
6198;BME280;3132;42.622;23.328;2022-11-15T00:28:07;93356.69;;;3.36;100.00
6198;BME280;3132;42.622;23.328;2022-11-15T00:30:32;93347.78;;;3.31;100.00
6198;BME280;3132;42.622;23.328;2022-11-15T00:33:03;93351.59;;;3.29;100.00
6198;BME280;3132;42.622;23.328;2022-11-15T00:35:30;93340.13;;;3.43;100.00
6198;BME280;3132;42.622;23.328;2022-11-15T00:37:56;93343.44;;;3.32;100.00
6198;BME280;3132;42.622;23.328;2022-11-15T00:40:21;93339.09;;;3.44;100.00
6198;BME280;3132;42.622;23.328;2022-11-15T00:42:46;93326.22;;;3.26;100.00
6198;BME280;3132;42.622;23.328;2022-11-15T00:45:12;93338.19;;;3.39;100.00
6198;BME280;3132;42.622;23.328;2022-11-15T00:47:37;93333.25;;;3.37;100.00
6198;BME280;3132;42.622;23.328;2022-11-15T00:50:03;93335.00;;;3.25;100.00
6198;BME280;3132;42.622;23.328;2022-11-15T00:52:29;93336.03;;;3.36;100.00
6198;BME280;3132;42.622;23.328;2022-11-15T00:54:54;93339.72;;;3.28;100.00
6198;BME280;3132;42.622;23.328;2022-11-15T00:57:19;93337.41;;;3.20;100.00
6198;BME280;3132;42.622;23.328;2022-11-15T00:59:45;93326.22;;;3.26;100.00
6198;BME280;3132;42.622;23.328;2022-11-15T01:02:10;93324.84;;;3.42;100.00
6198;BME280;3132;42.622;23.328;2022-11-15T01:04:35;93326.81;;;3.28;100.00
6198;BME280;3132;42.622;23.328;2022-11-15T01:07:01;93317.66;;;3.14;100.00
6198;BME280;3132;42.622;23.328;2022-11-15T01:09:26;93327.69;;;3.22;100.00
6198;BME280;3132;42.622;23.328;2022-11-15T01:11:51;93326.88;;;3.21;100.00
6198;BME280;3132;42.622;23.328;2022-11-15T01:14:17;93323.88;;;3.24;100.00
6198;BME280;3132;42.622;23.328;2022-11-15T01:16:42;93327.16;;;3.31;100.00
6198;BME280;3132;42.622;23.328;2022-11-15T01:19:07;93335.31;;;3.28;100.00
6198;BME280;3132;42.622;23.328;2022-11-15T01:21:33;93321.66;;;3.28;100.00
6198;BME280;3132;42.622;23.328;2022-11-15T01:23:58;93321.94;;;3.20;100.00
6198;BME280;3132;42.622;23.328;2022-11-15T01:26:24;93318.00;;;3.17;100.00
6198;BME280;3132;42.622;23.328;2022-11-15T01:28:50;93320.19;;;3.32;100.00
6198;BME280;3132;42.622;23.328;2022-11-15T01:31:18;93317.56;;;3.20;100.00
6198;BME280;3132;42.622;23.328;2022-11-15T01:33:44;93321.94;;;3.20;100.00
6198;BME280;3132;42.622;23.328;2022-11-15T01:36:12;93318.84;;;3.29;100.00
6198;BME280;3132;42.622;23.328;2022-11-15T01:38:38;93319.84;;;3.28;100.00
6198;BME280;3132;42.622;23.328;2022-11-15T01:41:04;93312.00;;;3.23;100.00
6198;BME280;3132;42.622;23.328;2022-11-15T01:43:34;93317.75;;;3.37;100.00
6198;BME280;3132;42.622;23.328;2022-11-15T01:48:32;93319.41;;;3.31;100.00
6198;BME280;3132;42.622;23.328;2022-11-15T01:51:01;93315.78;;;3.21;100.00
6198;BME280;3132;42.622;23.328;2022-11-15T01:53:29;93293.63;;;3.13;100.00
6198;BME280;3132;42.622;23.328;2022-11-15T01:55:57;93307.34;;;3.14;100.00
6198;BME280;3132;42.622;23.328;2022-11-15T01:58:23;93305.59;;;3.26;100.00
6198;BME280;3132;42.622;23.328;2022-11-15T02:00:48;93314.69;;;3.28;100.00
6198;BME280;3132;42.622;23.328;2022-11-15T02:03:15;93305.41;;;3.09;100.00
6198;BME280;3132;42.622;23.328;2022-11-15T02:05:41;93312.06;;;3.17;100.00
6198;BME280;3132;42.622;23.328;2022-11-15T02:08:08;93306.31;;;3.15;100.00
6198;BME280;3132;42.622;23.328;2022-11-15T02:10:33;93309.63;;;3.22;100.00
6198;BME280;3132;42.622;23.328;2022-11-15T02:12:59;93310.56;;;3.09;100.00
6198;BME280;3132;42.622;23.328;2022-11-15T02:15:30;93305.03;;;3.06;100.00
6198;BME280;3132;42.622;23.328;2022-11-15T02:18:19;93311.25;;;3.16;100.00
6198;BME280;3132;42.622;23.328;2022-11-15T02:29:58;93298.22;;;3.11;100.00
6198;BME280;3132;42.622;23.328;2022-11-15T02:32:34;93303.75;;;3.15;100.00
6198;BME280;3132;42.622;23.328;2022-11-15T02:42:35;93286.41;;;3.04;100.00
6198;BME280;3132;42.622;23.328;2022-11-15T02:45:28;93296.34;;;3.00;100.00
6198;BME280;3132;42.622;23.328;2022-11-15T02:47:56;93296.72;;;3.04;100.00
6198;BME280;3132;42.622;23.328;2022-11-15T02:50:29;93299.25;;;2.92;100.00
6198;BME280;3132;42.622;23.328;2022-11-15T02:52:55;93301.91;;;2.86;100.00
6198;BME280;3132;42.622;23.328;2022-11-15T02:55:37;93296.09;;;2.90;100.00
6198;BME280;3132;42.622;23.328;2022-11-15T03:01:16;93292.22;;;2.99;100.00
6198;BME280;3132;42.622;23.328;2022-11-15T03:07:07;93301.25;;;2.90;100.00
6198;BME280;3132;42.622;23.328;2022-11-15T03:09:47;93299.25;;;2.92;100.00
6198;BME280;3132;42.622;23.328;2022-11-15T03:12:35;93297.16;;;3.01;100.00
6198;BME280;3132;42.622;23.328;2022-11-15T03:15:23;93299.81;;;2.94;100.00
6198;BME280;3132;42.622;23.328;2022-11-15T03:17:55;93297.50;;;2.86;100.00
6198;BME280;3132;42.622;23.328;2022-11-15T03:20:24;93300.94;;;2.80;100.00
6198;BME280;3132;42.622;23.328;2022-11-15T03:22:53;93282.84;;;2.69;100.00
6198;BME280;3132;42.622;23.328;2022-11-15T03:25:22;93282.78;;;2.75;100.00
6198;BME280;3132;42.622;23.328;2022-11-15T03:27:52;93285.56;;;2.74;100.00
6198;BME280;3132;42.622;23.328;2022-11-15T03:30:20;93286.13;;;2.76;100.00
6198;BME280;3132;42.622;23.328;2022-11-15T03:32:49;93287.63;;;2.65;100.00
6198;BME280;3132;42.622;23.328;2022-11-15T03:35:21;93290.06;;;2.60;100.00
6198;BME280;3132;42.622;23.328;2022-11-15T03:40:40;93278.59;;;2.56;100.00
6198;BME280;3132;42.622;23.328;2022-11-15T03:44:04;93276.09;;;2.50;100.00
6198;BME280;3132;42.622;23.328;2022-11-15T03:46:26;93258.47;;;2.47;100.00
6198;BME280;3132;42.622;23.328;2022-11-15T03:48:58;93265.50;;;2.58;100.00
6198;BME280;3132;42.622;23.328;2022-11-15T03:51:25;93258.00;;;2.56;100.00
6198;BME280;3132;42.622;23.328;2022-11-15T03:53:51;93255.56;;;2.61;100.00
6198;BME280;3132;42.622;23.328;2022-11-15T03:56:16;93248.97;;;2.65;100.00
6198;BME280;3132;42.622;23.328;2022-11-15T03:58:42;93250.31;;;2.68;100.00
6198;BME280;3132;42.622;23.328;2022-11-15T04:01:07;93250.47;;;2.55;100.00
6198;BME280;3132;42.622;23.328;2022-11-15T04:03:32;93252.28;;;2.72;100.00
6198;BME280;3132;42.622;23.328;2022-11-15T04:05:58;93252.34;;;2.66;100.00
6198;BME280;3132;42.622;23.328;2022-11-15T04:08:23;93255.41;;;2.74;100.00
6198;BME280;3132;42.622;23.328;2022-11-15T04:10:49;93245.03;;;2.81;100.00
6198;BME280;3132;42.622;23.328;2022-11-15T04:13:15;93254.97;;;2.77;100.00
6198;BME280;3132;42.622;23.328;2022-11-15T04:15:40;93251.47;;;2.72;100.00
6198;BME280;3132;42.622;23.328;2022-11-15T04:18:05;93233.28;;;2.67;100.00
6198;BME280;3132;42.622;23.328;2022-11-15T04:20:31;93247.19;;;2.66;100.00
6198;BME280;3132;42.622;23.328;2022-11-15T04:23:20;93241.00;;;2.67;100.00
6198;BME280;3132;42.622;23.328;2022-11-15T04:26:07;93240.00;;;2.68;100.00
6198;BME280;3132;42.622;23.328;2022-11-15T04:28:35;93244.53;;;2.54;100.00
6198;BME280;3132;42.622;23.328;2022-11-15T04:31:00;93231.00;;;2.59;100.00
6198;BME280;3132;42.622;23.328;2022-11-15T04:33:26;93226.13;;;2.69;100.00
6198;BME280;3132;42.622;23.328;2022-11-15T04:35:51;93246.38;;;2.65;100.00
6198;BME280;3132;42.622;23.328;2022-11-15T04:38:36;93237.59;;;2.55;100.00
6198;BME280;3132;42.622;23.328;2022-11-15T04:41:02;93233.50;;;2.65;100.00
6198;BME280;3132;42.622;23.328;2022-11-15T04:43:28;93240.16;;;2.73;100.00
6198;BME280;3132;42.622;23.328;2022-11-15T04:45:54;93232.69;;;2.65;100.00
6198;BME280;3132;42.622;23.328;2022-11-15T04:48:20;93223.41;;;2.46;100.00
6198;BME280;3132;42.622;23.328;2022-11-15T04:50:48;93248.94;;;2.83;100.00
6198;BME280;3132;42.622;23.328;2022-11-15T04:53:13;93229.63;;;2.74;100.00
6198;BME280;3132;42.622;23.328;2022-11-15T04:55:39;93252.63;;;2.94;100.00
6198;BME280;3132;42.622;23.328;2022-11-15T04:58:04;93250.88;;;3.06;100.00
6198;BME280;3132;42.622;23.328;2022-11-15T05:00:30;93229.66;;;3.04;100.00
6198;BME280;3132;42.622;23.328;2022-11-15T05:02:56;93233.72;;;3.11;100.00
6198;BME280;3132;42.622;23.328;2022-11-15T05:05:40;93238.22;;;3.16;100.00
6198;BME280;3132;42.622;23.328;2022-11-15T05:08:06;93242.69;;;3.09;100.00
6198;BME280;3132;42.622;23.328;2022-11-15T05:10:32;93244.97;;;2.87;100.00
6198;BME280;3132;42.622;23.328;2022-11-15T05:12:57;93243.75;;;2.72;100.00
6198;BME280;3132;42.622;23.328;2022-11-15T05:15:22;93242.28;;;2.76;100.00
6198;BME280;3132;42.622;23.328;2022-11-15T05:17:48;93220.03;;;2.45;100.00
6198;BME280;3132;42.622;23.328;2022-11-15T05:20:13;93259.00;;;2.73;100.00
6198;BME280;3132;42.622;23.328;2022-11-15T05:22:38;93251.19;;;2.62;100.00
6198;BME280;3132;42.622;23.328;2022-11-15T05:25:04;93254.97;;;2.77;100.00
6198;BME280;3132;42.622;23.328;2022-11-15T05:27:30;93243.72;;;2.90;100.00
6198;BME280;3132;42.622;23.328;2022-11-15T05:29:55;93258.91;;;2.98;100.00
6198;BME280;3132;42.622;23.328;2022-11-15T05:32:21;93247.56;;;2.99;100.00
6198;BME280;3132;42.622;23.328;2022-11-15T05:34:46;93247.56;;;2.99;100.00
6198;BME280;3132;42.622;23.328;2022-11-15T05:37:13;93243.50;;;3.09;100.00
6198;BME280;3132;42.622;23.328;2022-11-15T05:39:39;93241.56;;;3.05;100.00
6198;BME280;3132;42.622;23.328;2022-11-15T05:42:09;93244.47;;;3.08;100.00
6198;BME280;3132;42.622;23.328;2022-11-15T05:44:36;93255.00;;;3.25;100.00
6198;BME280;3132;42.622;23.328;2022-11-15T05:47:03;93242.88;;;3.25;100.00
6198;BME280;3132;42.622;23.328;2022-11-15T05:49:34;93252.25;;;3.38;100.00
6198;BME280;3132;42.622;23.328;2022-11-15T05:52:04;93252.16;;;3.45;100.00
6198;BME280;3132;42.622;23.328;2022-11-15T05:54:30;93251.78;;;3.41;100.00
6198;BME280;3132;42.622;23.328;2022-11-15T05:56:57;93255.75;;;3.44;100.00
6198;BME280;3132;42.622;23.328;2022-11-15T05:59:22;93233.78;;;3.23;100.00
6198;BME280;3132;42.622;23.328;2022-11-15T06:01:48;93246.19;;;3.44;100.00
6198;BME280;3132;42.622;23.328;2022-11-15T06:04:14;93227.16;;;3.45;100.00
6198;BME280;3132;42.622;23.328;2022-11-15T06:06:39;93251.03;;;3.41;100.00
6198;BME280;3132;42.622;23.328;2022-11-15T06:09:05;93236.31;;;3.41;100.00
6198;BME280;3132;42.622;23.328;2022-11-15T06:11:30;93257.53;;;3.43;100.00
6198;BME280;3132;42.622;23.328;2022-11-15T06:13:56;93257.41;;;3.38;100.00
6198;BME280;3132;42.622;23.328;2022-11-15T06:16:21;93244.84;;;3.42;100.00
6198;BME280;3132;42.622;23.328;2022-11-15T06:18:47;93257.53;;;3.43;100.00
6198;BME280;3132;42.622;23.328;2022-11-15T06:21:12;93267.78;;;3.61;100.00
6198;BME280;3132;42.622;23.328;2022-11-15T06:23:38;93270.88;;;3.70;100.00
6198;BME280;3132;42.622;23.328;2022-11-15T06:26:03;93265.63;;;3.76;100.00
6198;BME280;3132;42.622;23.328;2022-11-15T06:28:30;93269.47;;;4.08;100.00
6198;BME280;3132;42.622;23.328;2022-11-15T06:30:56;93261.38;;;3.93;100.00
6198;BME280;3132;42.622;23.328;2022-11-15T06:33:26;93255.13;;;4.35;100.00
6198;BME280;3132;42.622;23.328;2022-11-15T06:35:52;93266.03;;;4.49;100.00
6198;BME280;3132;42.622;23.328;2022-11-15T06:38:17;93261.75;;;4.43;100.00
6198;BME280;3132;42.622;23.328;2022-11-15T06:40:42;93254.22;;;4.64;100.00
6198;BME280;3132;42.622;23.328;2022-11-15T06:43:08;93233.22;;;4.49;100.00
6198;BME280;3132;42.622;23.328;2022-11-15T06:45:33;93252.97;;;4.44;100.00
6198;BME280;3132;42.622;23.328;2022-11-15T06:47:58;93259.25;;;4.02;100.00
6198;BME280;3132;42.622;23.328;2022-11-15T06:50:24;93254.81;;;4.43;100.00
6198;BME280;3132;42.622;23.328;2022-11-15T06:52:49;93242.75;;;4.37;100.00
6198;BME280;3132;42.622;23.328;2022-11-15T06:55:15;93258.16;;;4.21;100.00
6198;BME280;3132;42.622;23.328;2022-11-15T06:57:50;93250.97;;;4.46;100.00
6198;BME280;3132;42.622;23.328;2022-11-15T07:00:18;93253.66;;;4.74;100.00
6198;BME280;3132;42.622;23.328;2022-11-15T07:02:44;93243.06;;;4.75;100.00
6198;BME280;3132;42.622;23.328;2022-11-15T07:05:11;93259.47;;;4.92;100.00
6198;BME280;3132;42.622;23.328;2022-11-15T07:07:36;93236.28;;;4.97;100.00
6198;BME280;3132;42.622;23.328;2022-11-15T07:10:02;93246.28;;;5.06;100.00
6198;BME280;3132;42.622;23.328;2022-11-15T07:12:27;93257.09;;;4.91;100.00
6198;BME280;3132;42.622;23.328;2022-11-15T07:14:53;93248.06;;;5.17;100.00
6198;BME280;3132;42.622;23.328;2022-11-15T07:17:18;93237.03;;;5.10;100.00
6198;BME280;3132;42.622;23.328;2022-11-15T07:19:43;93228.75;;;4.84;100.00
6198;BME280;3132;42.622;23.328;2022-11-15T07:22:09;93237.56;;;4.83;100.00
6198;BME280;3132;42.622;23.328;2022-11-15T07:24:34;93239.06;;;5.08;100.00
6198;BME280;3132;42.622;23.328;2022-11-15T07:26:59;93234.22;;;5.11;100.00
6198;BME280;3132;42.622;23.328;2022-11-15T07:29:25;93175.94;;;4.69;100.00
6198;BME280;3132;42.622;23.328;2022-11-15T07:31:50;93247.94;;;5.12;100.00
6198;BME280;3132;42.622;23.328;2022-11-15T07:34:16;93252.88;;;4.62;100.00
6198;BME280;3132;42.622;23.328;2022-11-15T07:36:41;93228.34;;;4.53;100.00
6198;BME280;3132;42.622;23.328;2022-11-15T07:39:07;93242.72;;;5.23;100.00
6198;BME280;3132;42.622;23.328;2022-11-15T07:41:32;93242.66;;;5.07;100.00
6198;BME280;3132;42.622;23.328;2022-11-15T07:43:57;93250.50;;;4.72;100.00
6198;BME280;3132;42.622;23.328;2022-11-15T07:46:23;93242.13;;;5.33;100.00
6198;BME280;3132;42.622;23.328;2022-11-15T07:48:48;93246.25;;;5.45;100.00
6198;BME280;3132;42.622;23.328;2022-11-15T07:51:15;93249.50;;;5.52;100.00
6198;BME280;3132;42.622;23.328;2022-11-15T07:53:43;93243.63;;;5.57;100.00
6198;BME280;3132;42.622;23.328;2022-11-15T07:56:09;93244.91;;;5.71;100.00
6198;BME280;3132;42.622;23.328;2022-11-15T07:58:36;93249.63;;;5.74;100.00
6198;BME280;3132;42.622;23.328;2022-11-15T08:01:09;93247.13;;;5.51;100.00
6198;BME280;3132;42.622;23.328;2022-11-15T08:03:35;93250.59;;;5.73;100.00
6198;BME280;3132;42.622;23.328;2022-11-15T08:06:01;93239.09;;;5.80;100.00
6198;BME280;3132;42.622;23.328;2022-11-15T08:08:27;93227.22;;;5.68;100.00
6198;BME280;3132;42.622;23.328;2022-11-15T08:10:53;93240.03;;;5.74;100.00
6198;BME280;3132;42.622;23.328;2022-11-15T08:13:18;93234.31;;;5.44;100.00
6198;BME280;3132;42.622;23.328;2022-11-15T08:15:44;93233.66;;;6.10;100.00
6198;BME280;3132;42.622;23.328;2022-11-15T08:18:14;93224.66;;;5.68;100.00
6198;BME280;3132;42.622;23.328;2022-11-15T08:20:41;93216.44;;;5.43;100.00
6198;BME280;3132;42.622;23.328;2022-11-15T08:23:07;93222.34;;;6.16;100.00
6198;BME280;3132;42.622;23.328;2022-11-15T08:25:34;93241.03;;;6.34;100.00
6198;BME280;3132;42.622;23.328;2022-11-15T08:28:03;93232.84;;;6.42;99.34
6198;BME280;3132;42.622;23.328;2022-11-15T08:30:29;93245.81;;;6.26;99.17
6198;BME280;3132;42.622;23.328;2022-11-15T08:32:57;93240.50;;;6.16;100.00
6198;BME280;3132;42.622;23.328;2022-11-15T08:35:23;93239.31;;;6.07;99.51
6198;BME280;3132;42.622;23.328;2022-11-15T08:37:49;93234.19;;;6.28;98.98
6198;BME280;3132;42.622;23.328;2022-11-15T08:40:14;93237.72;;;6.06;100.00
6198;BME280;3132;42.622;23.328;2022-11-15T08:42:40;93208.34;;;6.17;100.00
6198;BME280;3132;42.622;23.328;2022-11-15T08:45:06;93188.72;;;6.04;99.64
6198;BME280;3132;42.622;23.328;2022-11-15T08:47:32;93232.53;;;6.39;99.22
6198;BME280;3132;42.622;23.328;2022-11-15T08:49:57;93225.56;;;6.39;99.23
6198;BME280;3132;42.622;23.328;2022-11-15T08:52:23;93212.94;;;6.48;99.39
6198;BME280;3132;42.622;23.328;2022-11-15T08:54:48;93208.91;;;6.57;98.57
6198;BME280;3132;42.622;23.328;2022-11-15T08:57:14;93207.31;;;6.73;97.90
6198;BME280;3132;42.622;23.328;2022-11-15T08:59:39;93188.06;;;6.47;97.39
6198;BME280;3132;42.622;23.328;2022-11-15T09:02:05;93206.53;;;6.34;99.32
6198;BME280;3132;42.622;23.328;2022-11-15T09:04:31;93210.03;;;6.61;99.15
6198;BME280;3132;42.622;23.328;2022-11-15T09:06:56;93204.31;;;6.81;99.36
6198;BME280;3132;42.622;23.328;2022-11-15T09:09:22;93200.88;;;6.75;97.36
6198;BME280;3132;42.622;23.328;2022-11-15T09:11:47;93200.97;;;6.64;98.54
6198;BME280;3132;42.622;23.328;2022-11-15T09:14:14;93192.06;;;6.76;98.34
6198;BME280;3132;42.622;23.328;2022-11-15T09:16:40;93158.94;;;6.83;98.57
6198;BME280;3132;42.622;23.328;2022-11-15T09:19:05;93191.03;;;7.20;96.41
6198;BME280;3132;42.622;23.328;2022-11-15T09:21:31;93178.50;;;6.91;97.50
6198;BME280;3132;42.622;23.328;2022-11-15T09:23:57;93185.16;;;7.08;96.39
6198;BME280;3132;42.622;23.328;2022-11-15T09:26:22;93190.59;;;7.28;95.70
6198;BME280;3132;42.622;23.328;2022-11-15T09:28:48;93185.50;;;7.38;96.01
6198;BME280;3132;42.622;23.328;2022-11-15T09:31:14;93183.06;;;7.27;96.46
6198;BME280;3132;42.622;23.328;2022-11-15T09:33:39;93177.25;;;7.46;96.00
6198;BME280;3132;42.622;23.328;2022-11-15T09:36:08;93183.94;;;7.37;94.54
6198;BME280;3132;42.622;23.328;2022-11-15T09:38:34;93178.63;;;7.27;95.24
6198;BME280;3132;42.622;23.328;2022-11-15T09:49:09;93158.00;;;6.94;95.58
6198;BME280;3132;42.622;23.328;2022-11-15T09:51:42;93159.03;;;6.93;97.53
6198;BME280;3132;42.622;23.328;2022-11-15T09:54:20;93158.44;;;7.08;95.86
6198;BME280;3132;42.622;23.328;2022-11-15T09:56:46;93149.16;;;6.90;97.34
6198;BME280;3132;42.622;23.328;2022-11-15T10:04:28;93136.94;;;7.12;98.52
6198;BME280;3132;42.622;23.328;2022-11-15T10:07:18;93144.47;;;7.40;96.65
6198;BME280;3132;42.622;23.328;2022-11-15T10:09:47;93146.47;;;7.60;94.65
6198;BME280;3132;42.622;23.328;2022-11-15T10:12:15;93136.03;;;7.86;92.82
6198;BME280;3132;42.622;23.328;2022-11-15T10:14:41;93132.97;;;7.63;93.22
6198;BME280;3132;42.622;23.328;2022-11-15T10:19:56;93122.13;;;7.39;94.81
6198;BME280;3132;42.622;23.328;2022-11-15T10:22:45;93117.66;;;7.08;96.62
6198;BME280;3132;42.622;23.328;2022-11-15T10:25:22;93119.34;;;7.19;97.64
6198;BME280;3132;42.622;23.328;2022-11-15T10:28:14;93120.44;;;7.23;96.80
6198;BME280;3132;42.622;23.328;2022-11-15T10:30:40;93108.47;;;6.96;98.46
6198;BME280;3132;42.622;23.328;2022-11-15T10:35:46;93106.09;;;7.21;98.98
6198;BME280;3132;42.622;23.328;2022-11-15T10:38:12;93097.59;;;7.25;99.11
6198;BME280;3132;42.622;23.328;2022-11-15T10:40:39;93095.94;;;7.14;98.76
6198;BME280;3132;42.622;23.328;2022-11-15T10:43:16;93089.34;;;7.33;98.37
6198;BME280;3132;42.622;23.328;2022-11-15T10:45:42;93081.03;;;7.31;98.89
6198;BME280;3132;42.622;23.328;2022-11-15T10:48:19;93077.50;;;7.42;98.85
6198;BME280;3132;42.622;23.328;2022-11-15T10:50:46;93080.13;;;7.47;98.85
6198;BME280;3132;42.622;23.328;2022-11-15T10:55:56;93077.97;;;7.39;99.31
6198;BME280;3132;42.622;23.328;2022-11-15T11:00:55;93068.22;;;7.51;98.01
6198;BME280;3132;42.622;23.328;2022-11-15T11:06:22;93058.97;;;7.34;98.69
6198;BME280;3132;42.622;23.328;2022-11-15T11:09:02;93059.53;;;7.09;99.67
6198;BME280;3132;42.622;23.328;2022-11-15T11:11:46;93049.78;;;7.53;97.94
6198;BME280;3132;42.622;23.328;2022-11-15T11:14:23;93039.34;;;7.48;97.48
6198;BME280;3132;42.622;23.328;2022-11-15T11:16:54;93044.13;;;7.61;97.06
6198;BME280;3132;42.622;23.328;2022-11-15T11:20:29;93039.81;;;7.76;94.92
6198;BME280;3132;42.622;23.328;2022-11-15T11:25:40;93037.03;;;7.93;93.49
6198;BME280;3132;42.622;23.328;2022-11-15T11:28:25;93033.06;;;7.80;95.01
6198;BME280;3132;42.622;23.328;2022-11-15T11:33:48;92998.53;;;7.85;94.36
6198;BME280;3132;42.622;23.328;2022-11-15T11:36:27;93013.50;;;8.14;92.65
6198;BME280;3132;42.622;23.328;2022-11-15T11:45:22;92992.25;;;8.28;90.38
6198;BME280;3132;42.622;23.328;2022-11-15T11:48:13;92990.69;;;8.27;90.45
6198;BME280;3132;42.622;23.328;2022-11-15T11:50:40;92985.44;;;8.16;91.16
6198;BME280;3132;42.622;23.328;2022-11-15T11:53:26;92989.38;;;8.24;90.93
6198;BME280;3132;42.622;23.328;2022-11-15T11:55:54;92986.06;;;8.39;91.47
6198;BME280;3132;42.622;23.328;2022-11-15T11:58:29;92985.56;;;8.52;90.45
6198;BME280;3132;42.622;23.328;2022-11-15T12:09:15;92965.34;;;8.84;87.25
6198;BME280;3132;42.622;23.328;2022-11-15T12:11:54;92959.34;;;8.83;86.56
6198;BME280;3132;42.622;23.328;2022-11-15T12:17:05;92957.25;;;8.90;85.54
6198;BME280;3132;42.622;23.328;2022-11-15T12:19:30;92955.44;;;8.81;85.88
6198;BME280;3132;42.622;23.328;2022-11-15T12:22:23;92959.06;;;8.80;87.11
6198;BME280;3132;42.622;23.328;2022-11-15T12:25:01;92945.28;;;8.74;87.25
6198;BME280;3132;42.622;23.328;2022-11-15T12:27:38;92949.22;;;8.92;87.27
6198;BME280;3132;42.622;23.328;2022-11-15T12:30:21;92938.78;;;8.82;87.73
6198;BME280;3132;42.622;23.328;2022-11-15T12:35:40;92933.56;;;9.02;86.28
6198;BME280;3132;42.622;23.328;2022-11-15T12:38:11;92927.84;;;9.05;86.17
6198;BME280;3132;42.622;23.328;2022-11-15T12:41:12;92926.28;;;9.04;86.64
6198;BME280;3132;42.622;23.328;2022-11-15T12:43:42;92925.22;;;9.35;84.36
6198;BME280;3132;42.622;23.328;2022-11-15T12:47:21;92922.84;;;9.43;83.68
6198;BME280;3132;42.622;23.328;2022-11-15T12:59:52;92906.16;;;9.49;84.05
6198;BME280;3132;42.622;23.328;2022-11-15T13:17:49;92901.25;;;9.33;84.41
6198;BME280;3132;42.622;23.328;2022-11-15T13:30:36;92878.91;;;8.92;86.37
6198;BME280;3132;42.622;23.328;2022-11-15T13:33:13;92889.84;;;8.79;87.05
6198;BME280;3132;42.622;23.328;2022-11-15T13:35:41;92884.13;;;8.82;86.61
6198;BME280;3132;42.622;23.328;2022-11-15T13:38:18;92873.19;;;8.65;87.28
6198;BME280;3132;42.622;23.328;2022-11-15T13:40:44;92880.19;;;8.59;87.54
6198;BME280;3132;42.622;23.328;2022-11-15T13:46:12;92885.41;;;8.49;88.17
6198;BME280;3132;42.622;23.328;2022-11-15T13:48:43;92882.50;;;8.41;88.51
6198;BME280;3132;42.622;23.328;2022-11-15T13:51:20;92891.34;;;8.35;88.77
6198;BME280;3132;42.622;23.328;2022-11-15T13:53:52;92889.25;;;8.27;89.79
6198;BME280;3132;42.622;23.328;2022-11-15T13:56:20;92891.56;;;8.18;90.59
6198;BME280;3132;42.622;23.328;2022-11-15T13:58:46;92876.72;;;8.13;91.13
6198;BME280;3132;42.622;23.328;2022-11-15T14:01:18;92875.66;;;8.09;91.33
6198;BME280;3132;42.622;23.328;2022-11-15T14:03:53;92878.25;;;7.99;92.06
6198;BME280;3132;42.622;23.328;2022-11-15T14:06:22;92862.09;;;7.92;92.26
6198;BME280;3132;42.622;23.328;2022-11-15T14:09:22;92863.16;;;7.96;92.79
6198;BME280;3132;42.622;23.328;2022-11-15T14:11:51;92857.91;;;7.81;93.24
6198;BME280;3132;42.622;23.328;2022-11-15T14:14:20;92861.53;;;7.80;93.80
6198;BME280;3132;42.622;23.328;2022-11-15T14:16:48;92855.03;;;7.73;94.29
6198;BME280;3132;42.622;23.328;2022-11-15T14:24:37;92870.03;;;7.56;96.51
6198;BME280;3132;42.622;23.328;2022-11-15T14:29:46;92867.13;;;7.47;98.75
6198;BME280;3132;42.622;23.328;2022-11-15T14:32:22;92866.69;;;7.65;98.31
6198;BME280;3132;42.622;23.328;2022-11-15T14:34:49;92867.19;;;7.62;97.52
6198;BME280;3132;42.622;23.328;2022-11-15T14:39:45;92847.06;;;7.38;97.92
6198;BME280;3132;42.622;23.328;2022-11-15T14:42:10;92829.31;;;7.15;98.30
6198;BME280;3132;42.622;23.328;2022-11-15T14:44:35;92855.34;;;7.25;99.15
6198;BME280;3132;42.622;23.328;2022-11-15T14:47:01;92848.81;;;7.17;99.09
6198;BME280;3132;42.622;23.328;2022-11-15T14:49:26;92856.03;;;7.10;99.53
6198;BME280;3132;42.622;23.328;2022-11-15T14:51:51;92850.63;;;7.17;99.42
6198;BME280;3132;42.622;23.328;2022-11-15T14:54:17;92842.22;;;7.00;99.25
6198;BME280;3132;42.622;23.328;2022-11-15T14:56:42;92854.97;;;7.06;99.49
6198;BME280;3132;42.622;23.328;2022-11-15T14:59:07;92862.38;;;6.93;100.00
6198;BME280;3132;42.622;23.328;2022-11-15T15:01:33;92861.09;;;6.90;100.00
6198;BME280;3132;42.622;23.328;2022-11-15T15:03:58;92845.38;;;6.70;100.00
6198;BME280;3132;42.622;23.328;2022-11-15T15:06:25;92863.03;;;6.73;100.00
6198;BME280;3132;42.622;23.328;2022-11-15T15:08:50;92863.00;;;6.68;100.00
6198;BME280;3132;42.622;23.328;2022-11-15T15:11:36;92854.22;;;6.69;100.00
6198;BME280;3132;42.622;23.328;2022-11-15T15:14:01;92848.72;;;6.66;100.00
6198;BME280;3132;42.622;23.328;2022-11-15T15:16:27;92854.47;;;6.68;100.00
6198;BME280;3132;42.622;23.328;2022-11-15T15:18:52;92861.34;;;6.57;100.00
6198;BME280;3132;42.622;23.328;2022-11-15T15:21:26;92854.81;;;6.49;100.00
6198;BME280;3132;42.622;23.328;2022-11-15T15:23:53;92861.34;;;6.57;100.00
6198;BME280;3132;42.622;23.328;2022-11-15T15:26:23;92845.72;;;6.47;100.00
6198;BME280;3132;42.622;23.328;2022-11-15T15:28:48;92847.47;;;6.36;100.00
6198;BME280;3132;42.622;23.328;2022-11-15T15:31:16;92819.16;;;6.30;100.00
6198;BME280;3132;42.622;23.328;2022-11-15T15:33:41;92844.88;;;6.36;100.00
6198;BME280;3132;42.622;23.328;2022-11-15T15:36:11;92839.19;;;6.39;100.00